createdAt,value
2019-02-24T00:00:27.814Z,4.60
2019-02-24T00:02:56.232Z,3.52
2019-02-24T00:05:24.692Z,3.55
2019-02-24T00:07:53.131Z,2.65
2019-02-24T00:10:21.551Z,2.47
2019-02-24T00:12:51.662Z,1.95
2019-02-24T00:15:20.106Z,1.70
2019-02-24T00:17:48.556Z,2.92
2019-02-24T00:20:16.967Z,2.90
2019-02-24T00:22:45.417Z,3.67
2019-02-24T00:25:13.843Z,2.35
2019-02-24T00:27:42.295Z,3.65
2019-02-24T00:30:10.786Z,3.00
2019-02-24T00:32:39.232Z,2.00
2019-02-24T00:35:07.706Z,3.52
2019-02-24T00:37:36.146Z,4.62
2019-02-24T00:40:06.326Z,3.80
2019-02-24T00:42:34.770Z,10.48
2019-02-24T00:45:03.901Z,4.92
2019-02-24T00:47:32.343Z,4.83
2019-02-24T00:50:00.775Z,2.30
2019-02-24T00:52:29.226Z,2.58
2019-02-24T00:54:57.663Z,6.60
2019-02-24T00:57:26.082Z,2.37
2019-02-24T00:59:54.499Z,2.22
2019-02-24T01:02:22.951Z,3.87
2019-02-24T01:04:51.372Z,1.47
2019-02-24T01:07:19.815Z,3.67
2019-02-24T01:09:48.237Z,3.65
2019-02-24T01:12:16.703Z,3.15
2019-02-24T01:14:45.156Z,3.42
2019-02-24T01:17:13.566Z,3.05
2019-02-24T01:19:42.020Z,4.10
2019-02-24T01:22:10.447Z,3.98
2019-02-24T01:24:38.874Z,8.93
2019-02-24T01:27:07.463Z,4.70
2019-02-24T01:29:35.915Z,4.97
2019-02-24T01:32:04.330Z,4.37
2019-02-24T01:34:32.786Z,4.28
2019-02-24T01:37:01.199Z,3.65
2019-02-24T01:39:29.644Z,11.88
2019-02-24T01:41:58.068Z,3.92
2019-02-24T01:44:26.527Z,3.92
2019-02-24T01:46:54.944Z,5.12
2019-02-24T01:49:23.380Z,3.95
2019-02-24T01:51:51.800Z,4.30
2019-02-24T01:54:20.245Z,4.62
2019-02-24T01:56:48.666Z,3.70
2019-02-24T01:59:17.102Z,3.27
2019-02-24T02:01:45.547Z,4.00
2019-02-24T02:04:13.986Z,4.50
2019-02-24T02:06:42.413Z,3.15
2019-02-24T02:09:11.066Z,4.28
2019-02-24T02:11:39.473Z,2.92
2019-02-24T02:14:07.925Z,2.85
2019-02-24T02:16:36.338Z,7.55
2019-02-24T02:19:04.757Z,5.10
2019-02-24T02:21:33.197Z,3.40
2019-02-24T02:24:01.615Z,5.40
2019-02-24T02:26:30.072Z,3.52
2019-02-24T02:28:58.478Z,3.20
2019-02-24T02:31:26.920Z,2.47
2019-02-24T02:33:55.330Z,4.40
2019-02-24T02:36:23.780Z,3.10
2019-02-24T02:38:52.190Z,4.10
2019-02-24T02:41:20.634Z,4.85
2019-02-24T02:43:51.598Z,4.78
2019-02-24T02:46:20.047Z,3.70
2019-02-24T02:48:48.467Z,3.92
2019-02-24T02:51:16.908Z,4.72
2019-02-24T02:53:45.340Z,4.95
2019-02-24T02:56:13.784Z,3.27
2019-02-24T02:58:42.198Z,4.90
2019-02-24T03:01:10.712Z,6.67
2019-02-24T03:03:39.122Z,3.92
2019-02-24T03:06:11.702Z,4.22
2019-02-24T03:08:47.684Z,3.80
2019-02-24T03:11:16.756Z,4.33
2019-02-24T03:13:45.171Z,4.90
2019-02-24T03:16:13.765Z,1.95
2019-02-24T03:18:42.223Z,5.37
2019-02-24T03:21:10.638Z,10.05
2019-02-24T03:23:39.083Z,5.28
2019-02-24T03:26:07.546Z,3.47
2019-02-24T03:28:35.994Z,3.17
2019-02-24T03:31:04.425Z,4.92
2019-02-24T03:33:32.869Z,4.45
2019-02-24T03:36:01.282Z,7.47
2019-02-24T03:38:29.713Z,3.30
2019-02-24T03:40:58.172Z,3.83
2019-02-24T03:43:26.655Z,4.15
2019-02-24T03:45:55.083Z,4.17
2019-02-24T03:48:23.516Z,5.20
2019-02-24T03:50:51.943Z,6.25
2019-02-24T03:53:20.370Z,5.05
2019-02-24T03:55:48.793Z,7.03
2019-02-24T03:58:17.299Z,4.12
2019-02-24T04:00:45.789Z,5.50
2019-02-24T04:03:14.290Z,5.90
2019-02-24T04:05:42.723Z,5.78
2019-02-24T04:08:11.177Z,4.33
2019-02-24T04:10:39.601Z,8.10
2019-02-24T04:13:08.061Z,5.05
2019-02-24T04:15:36.535Z,4.53
2019-02-24T04:18:06.589Z,4.85
2019-02-24T04:20:35.029Z,5.05
2019-02-24T04:23:03.446Z,5.30
2019-02-24T04:25:31.891Z,4.53
2019-02-24T04:28:00.307Z,3.60
2019-02-24T04:30:28.751Z,4.70
2019-02-24T04:32:57.167Z,5.80
2019-02-24T04:35:25.622Z,6.03
2019-02-24T04:37:55.561Z,7.12
2019-02-24T04:40:23.997Z,3.10
2019-02-24T04:42:52.417Z,6.45
2019-02-24T04:45:20.871Z,6.05
2019-02-24T04:47:49.278Z,6.40
2019-02-24T04:50:17.721Z,7.10
2019-02-24T04:52:46.132Z,7.45
2019-02-24T04:55:14.632Z,5.35
2019-02-24T04:57:43.072Z,5.20
2019-02-24T05:00:11.598Z,5.75
2019-02-24T05:02:40.037Z,7.35
2019-02-24T05:05:08.455Z,5.08
2019-02-24T05:07:36.895Z,6.70
2019-02-24T05:10:06.397Z,4.97
2019-02-24T05:12:34.899Z,4.40
2019-02-24T05:15:03.807Z,4.83
2019-02-24T05:17:32.319Z,6.20
2019-02-24T05:20:00.739Z,4.55
2019-02-24T05:22:29.191Z,4.58
2019-02-24T05:24:57.608Z,7.55
2019-02-24T05:27:26.051Z,7.95
2019-02-24T05:29:54.484Z,3.80
2019-02-24T05:32:22.921Z,8.30
2019-02-24T05:34:51.483Z,5.28
2019-02-24T05:37:19.919Z,3.98
2019-02-24T05:39:48.341Z,5.72
2019-02-24T05:42:16.796Z,4.62
2019-02-24T05:44:45.211Z,6.97
2019-02-24T05:47:13.630Z,7.20
2019-02-24T05:49:42.067Z,4.65
2019-02-24T05:52:10.498Z,7.67
2019-02-24T05:54:39.019Z,5.97
2019-02-24T05:57:07.438Z,6.28
2019-02-24T05:59:35.889Z,8.63
2019-02-24T06:02:04.366Z,3.72
2019-02-24T06:04:32.812Z,4.92
2019-02-24T06:07:01.229Z,4.80
2019-02-24T06:09:29.667Z,4.33
2019-02-24T06:11:58.086Z,7.40
2019-02-24T06:14:26.525Z,6.40
2019-02-24T06:16:54.944Z,7.25
2019-02-24T06:19:24.327Z,7.00
2019-02-24T06:21:52.745Z,7.97
2019-02-24T06:24:21.193Z,6.97
2019-02-24T06:26:49.611Z,5.22
2019-02-24T06:29:18.054Z,7.80
2019-02-24T06:31:46.463Z,5.60
2019-02-24T06:34:14.918Z,9.05
2019-02-24T06:36:43.327Z,4.67
2019-02-24T06:39:11.801Z,7.67
2019-02-24T06:41:40.211Z,11.03
2019-02-24T06:44:08.639Z,8.03
2019-02-24T06:46:37.078Z,8.58
2019-02-24T06:49:05.506Z,12.00
2019-02-24T06:51:34.024Z,6.67
2019-02-24T06:54:02.440Z,11.73
2019-02-24T06:56:30.949Z,11.12
2019-02-24T06:58:59.389Z,7.50
2019-02-24T07:01:27.822Z,7.60
2019-02-24T07:03:56.250Z,10.18
2019-02-24T07:06:24.777Z,10.45
2019-02-24T07:08:53.207Z,10.15
2019-02-24T07:11:21.703Z,7.05
2019-02-24T07:13:50.123Z,11.40
2019-02-24T07:16:18.571Z,12.65
2019-02-24T07:18:47.002Z,13.83
2019-02-24T07:21:15.527Z,11.30
2019-02-24T07:23:43.959Z,10.75
2019-02-24T07:26:12.397Z,11.05
2019-02-24T07:28:40.818Z,9.60
2019-02-24T07:31:09.322Z,15.03
2019-02-24T07:33:37.764Z,11.85
2019-02-24T07:36:06.175Z,15.08
2019-02-24T07:38:34.623Z,19.62
2019-02-24T07:41:03.054Z,19.82
2019-02-24T07:43:31.499Z,17.57
2019-02-24T07:45:59.926Z,9.73
2019-02-24T07:48:28.375Z,10.25
2019-02-24T07:50:56.802Z,11.12
2019-02-24T07:53:25.243Z,8.90
2019-02-24T07:55:53.671Z,6.47
2019-02-24T07:58:22.131Z,9.43
2019-02-24T08:00:50.564Z,8.45
2019-02-24T08:03:19.016Z,8.53
2019-02-24T08:05:47.430Z,5.20
2019-02-24T08:08:16.659Z,8.53
2019-02-24T08:10:45.262Z,7.83
2019-02-24T08:13:13.718Z,6.12
2019-02-24T08:15:42.165Z,10.80
2019-02-24T08:18:10.602Z,7.37
2019-02-24T08:20:39.040Z,5.33
2019-02-24T08:23:07.475Z,4.72
2019-02-24T08:25:35.983Z,11.48
2019-02-24T08:28:04.404Z,5.05
2019-02-24T08:30:40.965Z,7.30
2019-02-24T08:33:02.969Z,7.20
2019-02-24T08:35:31.402Z,5.92
2019-02-24T08:37:59.811Z,5.50
2019-02-24T08:40:28.250Z,8.13
2019-02-24T08:42:56.750Z,7.28
2019-02-24T08:45:25.198Z,5.85
2019-02-24T08:47:53.615Z,6.08
2019-02-24T08:50:22.058Z,4.47
2019-02-24T08:52:50.472Z,5.10
2019-02-24T08:55:18.925Z,4.87
2019-02-24T08:57:47.354Z,4.42
2019-02-24T09:00:16.305Z,7.53
2019-02-24T09:02:44.756Z,4.40
2019-02-24T09:05:13.277Z,5.97
2019-02-24T09:07:41.700Z,5.78
2019-02-24T09:10:10.139Z,4.90
2019-02-24T09:12:38.566Z,4.80
2019-02-24T09:15:13.963Z,6.55
2019-02-24T09:17:42.390Z,5.55
2019-02-24T09:20:11.944Z,6.92
2019-02-24T09:22:40.383Z,6.35
2019-02-24T09:25:09.054Z,3.75
2019-02-24T09:27:37.639Z,5.83
2019-02-24T09:30:09.451Z,4.00
2019-02-24T09:32:37.899Z,3.98
2019-02-24T09:35:07.667Z,8.85
2019-02-24T09:37:36.106Z,4.28
2019-02-24T09:40:07.434Z,3.67
2019-02-24T09:42:35.947Z,3.75
2019-02-24T09:45:06.614Z,5.33
2019-02-24T09:47:35.116Z,3.85
2019-02-24T09:50:04.486Z,5.50
2019-02-24T09:52:32.974Z,6.10
2019-02-24T09:55:01.404Z,5.85
2019-02-24T09:57:29.919Z,5.50
2019-02-24T09:59:58.352Z,6.30
2019-02-24T10:02:26.780Z,7.15
2019-02-24T10:04:55.290Z,4.10
2019-02-24T10:07:23.793Z,4.63
2019-02-24T10:09:52.248Z,4.28
2019-02-24T10:12:20.766Z,3.87
2019-02-24T10:14:49.204Z,5.70
2019-02-24T10:17:17.640Z,2.60
2019-02-24T10:19:46.066Z,3.80
2019-02-24T10:22:14.506Z,5.40
2019-02-24T10:24:43.017Z,2.97
2019-02-24T10:27:11.418Z,2.60
2019-02-24T10:29:39.873Z,2.57
2019-02-24T10:32:08.296Z,3.57
2019-02-24T10:34:36.759Z,3.03
2019-02-24T10:37:07.912Z,3.77
2019-02-24T10:39:36.359Z,3.57
2019-02-24T10:42:04.780Z,4.33
2019-02-24T10:44:33.234Z,3.87
2019-02-24T10:47:02.320Z,1.97
2019-02-24T10:49:31.050Z,2.50
2019-02-24T10:51:59.533Z,3.30
2019-02-24T10:54:28.010Z,3.87
2019-02-24T10:56:56.438Z,4.97
2019-02-24T10:59:24.868Z,3.93
2019-02-24T11:01:53.291Z,6.17
2019-02-24T11:04:21.740Z,3.80
2019-02-24T11:06:50.180Z,4.10
2019-02-24T11:09:18.627Z,3.20
2019-02-24T11:11:47.084Z,3.30
2019-02-24T11:14:15.520Z,3.70
2019-02-24T11:16:43.988Z,2.10
2019-02-24T11:19:12.480Z,3.20
2019-02-24T11:21:40.919Z,3.50
2019-02-24T11:24:09.444Z,2.80
2019-02-24T11:26:37.880Z,6.27
2019-02-24T11:29:06.323Z,3.97
2019-02-24T11:31:38.378Z,4.33
2019-02-24T11:34:04.964Z,4.67
2019-02-24T11:36:33.399Z,6.50
2019-02-24T11:39:01.915Z,3.63
2019-02-24T11:41:30.438Z,2.93
2019-02-24T11:43:58.873Z,6.90
2019-02-24T11:46:27.319Z,4.60
2019-02-24T11:48:55.756Z,3.77
2019-02-24T11:51:25.722Z,4.83
2019-02-24T11:53:54.145Z,3.47
2019-02-24T11:56:22.572Z,3.67
2019-02-24T11:58:51.054Z,5.87
2019-02-24T12:01:19.475Z,4.40
2019-02-24T12:03:47.919Z,7.43
2019-02-24T12:06:16.359Z,3.87
2019-02-24T12:08:44.815Z,2.80
2019-02-24T12:11:13.230Z,2.50
2019-02-24T12:13:41.676Z,3.00
2019-02-24T12:16:10.100Z,4.67
2019-02-24T12:18:38.616Z,6.03
2019-02-24T12:21:07.044Z,3.83
2019-02-24T12:23:35.481Z,3.00
2019-02-24T12:26:03.909Z,2.70
2019-02-24T12:28:32.397Z,5.33
2019-02-24T12:31:00.895Z,3.30
2019-02-24T12:33:29.382Z,2.77
2019-02-24T12:35:57.814Z,7.70
2019-02-24T12:38:26.262Z,4.07
2019-02-24T12:40:54.677Z,4.20
2019-02-24T12:43:23.125Z,3.90
2019-02-24T12:45:51.570Z,4.47
2019-02-24T12:48:19.986Z,3.90
2019-02-24T12:50:48.429Z,3.97
2019-02-24T12:53:16.859Z,4.50
2019-02-24T12:55:45.310Z,4.50
2019-02-24T12:58:13.726Z,2.90
2019-02-24T13:00:42.310Z,2.63
2019-02-24T13:03:10.731Z,3.03
2019-02-24T13:05:39.187Z,5.50
2019-02-24T13:08:07.612Z,3.10
2019-02-24T13:10:36.048Z,3.53
2019-02-24T13:13:04.480Z,3.27
2019-02-24T13:15:32.918Z,3.60
2019-02-24T13:18:01.347Z,3.53
2019-02-24T13:20:29.860Z,4.37
2019-02-24T13:22:58.276Z,5.90
2019-02-24T13:25:26.751Z,3.57
2019-02-24T13:27:55.179Z,3.77
2019-02-24T13:30:23.616Z,2.37
2019-02-24T13:32:52.038Z,2.73
2019-02-24T13:35:20.485Z,3.93
2019-02-24T13:37:48.906Z,3.60
2019-02-24T13:40:17.611Z,1.77
2019-02-24T13:42:46.016Z,4.67
2019-02-24T13:45:21.145Z,2.80
2019-02-24T13:47:49.596Z,2.13
2019-02-24T13:50:18.135Z,2.07
2019-02-24T13:52:46.587Z,4.77
2019-02-24T13:55:15.572Z,4.27
2019-02-24T13:57:44.002Z,3.83
2019-02-24T14:00:21.988Z,2.50
2019-02-24T14:02:50.573Z,4.10
2019-02-24T14:05:18.986Z,2.60
2019-02-24T14:07:47.508Z,2.70
2019-02-24T14:10:15.991Z,2.50
2019-02-24T14:12:44.425Z,4.70
2019-02-24T14:15:14.183Z,2.80
2019-02-24T14:17:42.635Z,1.63
2019-02-24T14:20:17.874Z,1.80
2019-02-24T14:22:46.384Z,1.80
2019-02-24T14:25:15.645Z,2.00
2019-02-24T14:27:44.177Z,1.70
2019-02-24T14:30:19.724Z,1.90
2019-02-24T14:32:48.866Z,2.80
2019-02-24T14:35:25.075Z,2.60
2019-02-24T14:37:53.498Z,3.27
2019-02-24T14:40:22.064Z,5.17
2019-02-24T14:42:50.505Z,3.30
2019-02-24T14:45:21.145Z,2.30
2019-02-24T14:47:49.675Z,2.53
2019-02-24T14:50:18.115Z,2.80
2019-02-24T14:52:46.642Z,4.17
2019-02-24T14:55:15.502Z,3.10
2019-02-24T14:57:43.989Z,6.50
2019-02-24T15:00:22.609Z,3.40
2019-02-24T15:02:51.120Z,5.70
2019-02-24T15:05:19.607Z,3.20
2019-02-24T15:07:48.043Z,3.00
2019-02-24T15:10:18.813Z,2.60
2019-02-24T15:12:47.229Z,4.00
2019-02-24T15:15:18.121Z,2.97
2019-02-24T15:17:46.584Z,4.93
2019-02-24T15:20:17.527Z,6.77
2019-02-24T15:22:45.953Z,7.03
2019-02-24T15:25:18.950Z,5.67
2019-02-24T15:27:47.435Z,4.43
2019-02-24T15:30:32.865Z,8.60
2019-02-24T15:33:01.291Z,4.03
2019-02-24T15:35:29.769Z,3.90
2019-02-24T15:37:58.324Z,4.93
2019-02-24T15:40:26.857Z,4.00
2019-02-24T15:42:55.267Z,8.35
2019-02-24T15:45:23.782Z,3.45
2019-02-24T15:47:52.332Z,4.10
2019-02-24T15:50:20.846Z,4.50
2019-02-24T15:52:49.279Z,6.70
2019-02-24T15:55:18.314Z,4.93
2019-02-24T15:57:46.761Z,4.33
2019-02-24T16:00:20.230Z,7.37
2019-02-24T16:02:48.655Z,4.22
2019-02-24T16:05:17.107Z,3.87
2019-02-24T16:07:45.536Z,5.10
2019-02-24T16:10:16.365Z,6.92
2019-02-24T16:12:44.794Z,9.95
2019-02-24T16:15:15.883Z,5.62
2019-02-24T16:17:44.339Z,4.75
2019-02-24T16:20:36.002Z,4.20
2019-02-24T16:23:04.522Z,3.95
2019-02-24T16:25:32.955Z,8.90
2019-02-24T16:28:01.399Z,3.20
2019-02-24T16:30:29.979Z,4.80
2019-02-24T16:32:58.574Z,6.83
2019-02-24T16:35:26.988Z,7.45
2019-02-24T16:37:55.581Z,5.72
2019-02-24T16:40:25.902Z,7.25
2019-02-24T16:42:54.347Z,6.78
2019-02-24T16:45:22.820Z,6.83
2019-02-24T16:47:51.262Z,7.70
2019-02-24T16:50:21.527Z,5.83
2019-02-24T16:52:50.056Z,6.75
2019-02-24T16:55:18.636Z,8.93
2019-02-24T16:57:47.157Z,26.02
2019-02-24T17:00:21.362Z,23.65
2019-02-24T17:02:49.947Z,21.65
2019-02-24T17:05:18.519Z,20.82
2019-02-24T17:07:49.112Z,17.85
2019-02-24T17:10:22.207Z,7.87
2019-02-24T17:12:50.634Z,6.62
2019-02-24T17:15:20.599Z,6.90
2019-02-24T17:17:49.028Z,5.30
2019-02-24T17:20:21.774Z,3.50
2019-02-24T17:22:50.262Z,6.97
2019-02-24T17:25:18.779Z,4.58
2019-02-24T17:27:47.283Z,10.38
2019-02-24T17:30:17.329Z,14.68
2019-02-24T17:32:45.740Z,17.82
2019-02-24T17:35:14.411Z,17.37
2019-02-24T17:37:42.890Z,16.17
2019-02-24T17:40:20.371Z,29.05
2019-02-24T17:42:48.789Z,31.05
2019-02-24T17:45:17.459Z,22.40
2019-02-24T17:47:45.894Z,18.07
2019-02-24T17:50:15.591Z,17.50
2019-02-24T17:52:44.000Z,13.20
2019-02-24T17:55:18.896Z,13.65
2019-02-24T17:57:47.469Z,17.87
2019-02-24T18:00:34.058Z,17.45
2019-02-24T18:03:02.478Z,13.68
2019-02-24T18:05:31.119Z,12.73
2019-02-24T18:07:59.671Z,14.83
2019-02-24T18:10:28.258Z,8.98
2019-02-24T18:12:56.679Z,8.93
2019-02-24T18:15:25.155Z,13.70
2019-02-24T18:17:53.571Z,7.45
2019-02-24T18:20:22.538Z,3.60
2019-02-24T18:22:51.128Z,3.87
2019-02-24T18:25:19.629Z,5.65
2019-02-24T18:27:48.178Z,2.27
2019-02-24T18:30:27.695Z,3.77
2019-02-24T18:32:56.235Z,6.12
2019-02-24T18:35:24.720Z,4.42
2019-02-24T18:37:53.184Z,4.17
2019-02-24T18:40:21.662Z,4.28
2019-02-24T18:42:59.378Z,6.12
2019-02-24T18:45:20.592Z,5.60
2019-02-24T18:47:49.826Z,5.42
2019-02-24T18:50:19.284Z,6.87
2019-02-24T18:52:47.773Z,5.45
2019-02-24T18:55:16.347Z,7.67
2019-02-24T18:57:44.883Z,7.37
2019-02-24T19:00:19.260Z,7.42
2019-02-24T19:02:47.959Z,27.13
2019-02-24T19:05:16.488Z,37.70
2019-02-24T19:07:45.147Z,24.95
2019-02-24T19:10:15.711Z,17.92
2019-02-24T19:12:44.137Z,16.02
2019-02-24T19:15:15.691Z,14.45
2019-02-24T19:17:44.128Z,10.85
2019-02-24T19:20:15.213Z,5.65
2019-02-24T19:22:43.716Z,7.12
2019-02-24T19:25:12.394Z,5.87
2019-02-24T19:27:40.811Z,5.67
2019-02-24T19:30:14.554Z,7.70
2019-02-24T19:32:42.966Z,3.98
2019-02-24T19:35:13.467Z,5.12
2019-02-24T19:37:41.969Z,6.95
2019-02-24T19:40:17.510Z,7.65
2019-02-24T19:42:46.080Z,9.68
2019-02-24T19:45:16.395Z,8.00
2019-02-24T19:47:44.893Z,6.53
2019-02-24T19:50:15.399Z,6.28
2019-02-24T19:52:43.848Z,5.92
2019-02-24T19:55:15.788Z,7.50
2019-02-24T19:57:44.296Z,8.53
2019-02-24T20:00:17.874Z,8.63
2019-02-24T20:02:46.360Z,8.70
2019-02-24T20:05:14.944Z,6.55
2019-02-24T20:07:43.435Z,8.15
2019-02-24T20:10:15.573Z,10.72
2019-02-24T20:12:44.128Z,11.88
2019-02-24T20:15:14.565Z,9.53
2019-02-24T20:17:43.159Z,13.13
2019-02-24T20:20:14.152Z,11.55
2019-02-24T20:22:42.706Z,9.25
2019-02-24T20:25:13.391Z,8.65
2019-02-24T20:27:41.865Z,9.40
2019-02-24T20:30:27.151Z,9.15
2019-02-24T20:32:55.581Z,9.18
2019-02-24T20:35:24.236Z,7.15
2019-02-24T20:37:52.683Z,11.05
2019-02-24T20:40:21.123Z,12.47
2019-02-24T20:42:49.644Z,7.30
2019-02-24T20:45:20.186Z,9.03
2019-02-24T20:47:48.867Z,9.68
2019-02-24T20:50:22.820Z,10.13
2019-02-24T20:52:51.295Z,8.60
2019-02-24T20:55:19.781Z,9.08
2019-02-24T20:57:48.394Z,6.67
2019-02-24T21:00:25.314Z,7.60
2019-02-24T21:02:53.785Z,7.70
2019-02-24T21:05:22.214Z,8.20
2019-02-24T21:07:50.639Z,9.10
2019-02-24T21:10:19.133Z,11.22
2019-02-24T21:12:47.704Z,14.98
2019-02-24T21:15:17.938Z,16.27
2019-02-24T21:17:46.396Z,12.28
2019-02-24T21:20:20.691Z,11.70
2019-02-24T21:22:50.610Z,8.33
2019-02-24T21:25:19.304Z,7.80
2019-02-24T21:27:47.756Z,8.28
2019-02-24T21:30:17.628Z,12.68
2019-02-24T21:32:46.183Z,9.43
2019-02-24T21:35:17.039Z,9.25
2019-02-24T21:37:45.082Z,9.80
2019-02-24T21:40:17.827Z,6.55
2019-02-24T21:42:46.322Z,10.93
2019-02-24T21:45:20.550Z,9.10
2019-02-24T21:47:48.972Z,12.93
2019-02-24T21:50:17.976Z,13.50
2019-02-24T21:52:46.543Z,9.63
2019-02-24T21:55:15.308Z,13.48
2019-02-24T21:57:43.809Z,9.18
2019-02-24T22:00:17.649Z,12.45
2019-02-24T22:02:46.076Z,11.83
2019-02-24T22:05:14.607Z,13.45
2019-02-24T22:07:43.102Z,12.63
2019-02-24T22:10:13.204Z,11.25
2019-02-24T22:12:41.720Z,11.22
2019-02-24T22:15:13.167Z,8.50
2019-02-24T22:17:41.659Z,14.95
2019-02-24T22:20:10.535Z,9.75
2019-02-24T22:22:38.964Z,9.85
2019-02-24T22:25:10.212Z,13.62
2019-02-24T22:27:38.711Z,17.15
2019-02-24T22:30:10.680Z,17.27
2019-02-24T22:32:39.227Z,9.78
2019-02-24T22:35:09.070Z,16.62
2019-02-24T22:37:37.604Z,10.78
2019-02-24T22:40:09.425Z,12.65
2019-02-24T22:42:37.857Z,14.87
2019-02-24T22:45:09.620Z,12.10
2019-02-24T22:47:38.083Z,14.93
2019-02-24T22:50:09.102Z,13.85
2019-02-24T22:52:37.548Z,12.60
2019-02-24T22:55:08.792Z,16.30
2019-02-24T22:57:37.225Z,11.33
2019-02-24T23:00:14.586Z,11.97
2019-02-24T23:02:43.030Z,10.95
2019-02-24T23:05:12.630Z,11.93
2019-02-24T23:07:41.143Z,11.78
2019-02-24T23:10:09.709Z,12.07
2019-02-24T23:12:38.150Z,9.93
2019-02-24T23:15:06.920Z,7.70
2019-02-24T23:17:35.370Z,10.93
2019-02-24T23:20:05.736Z,10.98
2019-02-24T23:22:34.196Z,10.13
2019-02-24T23:25:02.618Z,13.48
2019-02-24T23:27:31.046Z,11.08
2019-02-24T23:29:59.482Z,10.93
2019-02-24T23:32:27.944Z,14.10
2019-02-24T23:34:56.346Z,8.95
2019-02-24T23:37:24.780Z,11.68
2019-02-24T23:39:53.232Z,17.82
2019-02-24T23:42:21.646Z,10.98
2019-02-24T23:44:50.161Z,12.70
2019-02-24T23:47:18.595Z,11.43
2019-02-24T23:49:47.037Z,9.38
2019-02-24T23:52:15.455Z,12.78
2019-02-24T23:54:43.902Z,13.18
2019-02-24T23:57:12.323Z,16.02
2019-02-24T23:59:40.763Z,14.68
